This is the latest recevied weather packets stored in our database for station/object WMKA. If no packets are shown the sender has not sent any weather packets the latest 10 day(s).
| Time | Temp. | Humidity | Pressure | Rain* | Wind** | Luminosity | Snow |
|---|---|---|---|---|---|---|---|
| 1778013589 | 23.33° C | 10% | - | - | - | - | - |
| 1778008200 | 25.56° C | 88% | 1008 hPa | - | - | - | - |
| 1778001589 | 26.67° C | 88% | 1009 hPa | - | - | - | - |
| 1778000999 | 26.67° C | 88% | 1009 hPa | - | - | - | - |
| 1777997400 | 26.67° C | 88% | 1009 hPa | - | - | - | - |
| 1777994999 | 26.67° C | 88% | 1008 hPa | - | - | - | - |
| 1777993799 | 26.67° C | 88% | 1008 hPa | - | - | - | - |
| 1777986608 | 28.89° C | 83% | 1006 hPa | - | - | - | - |
| 1777982999 | 30.56° C | 74% | 1006 hPa | - | - | - | - |
| 1777975799 | 33.89° C | 56% | 1004 hPa | - | - | - | - |
| 1777972203 | 33.89° C | 56% | 1005 hPa | - | - | - | - |
| 1777968599 | 33.89° C | 56% | 1005 hPa | - | - | - | - |
| 1777965000 | 33.89° C | 56% | 1007 hPa | - | - | - | - |
| 1777961398 | 33.89° C | 56% | 1008 hPa | - | - | - | - |
| 1777957803 | 32.78° C | 59% | 1009 hPa | - | - | - | - |
| 1777954198 | 31.67° C | 66% | 1010 hPa | - | - | - | - |
| 1777943398 | 26.67° C | 88% | 1009 hPa | - | - | - | - |
| 1777939804 | 25° C | 94% | 1009 hPa | - | - | - | - |
| 1777896597 | 25.56° C | 94% | 1007 hPa | - | - | - | - |
| 1777893001 | 25.56° C | 94% | 1007 hPa | - | - | - | - |
| 1777889398 | 25.56° C | 94% | 1007 hPa | - | - | - | - |
| 1777885796 | 30.56° C | 74% | 1007 hPa | - | - | - | - |
| 1777882196 | 31.67° C | 74% | 1007 hPa | - | - | - | - |
| 1777878601 | 31.67° C | 74% | 1008 hPa | - | - | - | - |
| 1777874997 | 31.67° C | 74% | 1009 hPa | - | - | - | - |
* Rain since midnight (hover to see other rain measurements)
** Current wind speed in m/s (hover to see current wind gust speed)